sensor_id;sensor_type;location;lat;lon;timestamp;P1;durP1;ratioP1;P2;durP2;ratioP2
74042;SDS011;62384;53.600;10.040;2023-04-27T00:00:50;6.90;;;2.47;;
74042;SDS011;62384;53.600;10.040;2023-04-27T00:03:15;5.10;;;1.80;;
74042;SDS011;62384;53.600;10.040;2023-04-27T00:05:41;5.32;;;1.70;;
74042;SDS011;62384;53.600;10.040;2023-04-27T00:08:07;4.35;;;1.60;;
74042;SDS011;62384;53.600;10.040;2023-04-27T00:10:33;6.35;;;1.55;;
74042;SDS011;62384;53.600;10.040;2023-04-27T00:12:58;5.20;;;2.20;;
74042;SDS011;62384;53.600;10.040;2023-04-27T00:15:24;5.03;;;1.80;;
74042;SDS011;62384;53.600;10.040;2023-04-27T00:17:49;3.10;;;1.48;;
74042;SDS011;62384;53.600;10.040;2023-04-27T00:20:15;3.72;;;1.75;;
74042;SDS011;62384;53.600;10.040;2023-04-27T00:22:40;5.70;;;1.42;;
74042;SDS011;62384;53.600;10.040;2023-04-27T00:25:06;9.20;;;1.83;;
74042;SDS011;62384;53.600;10.040;2023-04-27T00:27:31;6.50;;;2.38;;
74042;SDS011;62384;53.600;10.040;2023-04-27T00:29:56;5.07;;;2.33;;
74042;SDS011;62384;53.600;10.040;2023-04-27T00:32:22;7.05;;;2.03;;
74042;SDS011;62384;53.600;10.040;2023-04-27T00:34:47;6.85;;;2.47;;
74042;SDS011;62384;53.600;10.040;2023-04-27T00:37:12;8.68;;;2.05;;
74042;SDS011;62384;53.600;10.040;2023-04-27T00:39:38;6.63;;;1.77;;
74042;SDS011;62384;53.600;10.040;2023-04-27T00:42:03;4.78;;;1.52;;
74042;SDS011;62384;53.600;10.040;2023-04-27T00:44:28;5.82;;;1.90;;
74042;SDS011;62384;53.600;10.040;2023-04-27T00:46:54;4.00;;;1.67;;
74042;SDS011;62384;53.600;10.040;2023-04-27T00:49:20;4.95;;;1.73;;
74042;SDS011;62384;53.600;10.040;2023-04-27T00:51:46;5.47;;;1.70;;
74042;SDS011;62384;53.600;10.040;2023-04-27T00:54:12;5.20;;;1.65;;
74042;SDS011;62384;53.600;10.040;2023-04-27T00:56:40;5.45;;;2.10;;
74042;SDS011;62384;53.600;10.040;2023-04-27T00:59:05;8.35;;;1.90;;
74042;SDS011;62384;53.600;10.040;2023-04-27T01:01:31;5.50;;;2.17;;
74042;SDS011;62384;53.600;10.040;2023-04-27T01:03:57;6.22;;;1.77;;
74042;SDS011;62384;53.600;10.040;2023-04-27T01:06:22;8.43;;;1.92;;
74042;SDS011;62384;53.600;10.040;2023-04-27T01:08:47;6.15;;;1.85;;
74042;SDS011;62384;53.600;10.040;2023-04-27T01:11:13;7.45;;;1.85;;
74042;SDS011;62384;53.600;10.040;2023-04-27T01:13:38;3.55;;;1.77;;
74042;SDS011;62384;53.600;10.040;2023-04-27T01:16:03;4.80;;;2.20;;
74042;SDS011;62384;53.600;10.040;2023-04-27T01:18:29;6.03;;;2.17;;
74042;SDS011;62384;53.600;10.040;2023-04-27T01:20:55;7.57;;;2.08;;
74042;SDS011;62384;53.600;10.040;2023-04-27T01:23:20;5.03;;;2.35;;
74042;SDS011;62384;53.600;10.040;2023-04-27T01:25:45;5.15;;;1.73;;
74042;SDS011;62384;53.600;10.040;2023-04-27T01:28:11;7.53;;;2.60;;
74042;SDS011;62384;53.600;10.040;2023-04-27T01:30:36;4.70;;;1.83;;
74042;SDS011;62384;53.600;10.040;2023-04-27T01:33:01;5.55;;;1.80;;
74042;SDS011;62384;53.600;10.040;2023-04-27T01:35:27;7.38;;;2.13;;
74042;SDS011;62384;53.600;10.040;2023-04-27T01:37:52;6.15;;;1.95;;
74042;SDS011;62384;53.600;10.040;2023-04-27T01:40:17;5.38;;;1.80;;
74042;SDS011;62384;53.600;10.040;2023-04-27T01:42:43;7.57;;;2.30;;
74042;SDS011;62384;53.600;10.040;2023-04-27T01:45:08;6.32;;;2.17;;
74042;SDS011;62384;53.600;10.040;2023-04-27T01:47:34;4.95;;;1.85;;
74042;SDS011;62384;53.600;10.040;2023-04-27T01:50:00;4.78;;;2.10;;
74042;SDS011;62384;53.600;10.040;2023-04-27T01:52:25;4.00;;;1.85;;
74042;SDS011;62384;53.600;10.040;2023-04-27T01:54:51;6.40;;;2.28;;
74042;SDS011;62384;53.600;10.040;2023-04-27T01:57:16;11.93;;;3.17;;
74042;SDS011;62384;53.600;10.040;2023-04-27T01:59:41;6.90;;;1.85;;
74042;SDS011;62384;53.600;10.040;2023-04-27T02:02:06;3.92;;;1.83;;
74042;SDS011;62384;53.600;10.040;2023-04-27T02:04:32;3.53;;;1.85;;
74042;SDS011;62384;53.600;10.040;2023-04-27T02:06:57;4.65;;;1.65;;
74042;SDS011;62384;53.600;10.040;2023-04-27T02:09:23;4.47;;;2.13;;
74042;SDS011;62384;53.600;10.040;2023-04-27T02:11:48;7.65;;;2.22;;
74042;SDS011;62384;53.600;10.040;2023-04-27T02:14:14;6.40;;;2.42;;
74042;SDS011;62384;53.600;10.040;2023-04-27T02:16:39;3.53;;;2.05;;
74042;SDS011;62384;53.600;10.040;2023-04-27T02:19:04;3.45;;;1.67;;
74042;SDS011;62384;53.600;10.040;2023-04-27T02:21:29;5.85;;;2.55;;
74042;SDS011;62384;53.600;10.040;2023-04-27T02:23:55;9.00;;;2.28;;
74042;SDS011;62384;53.600;10.040;2023-04-27T02:26:20;6.28;;;2.03;;
74042;SDS011;62384;53.600;10.040;2023-04-27T02:28:46;8.60;;;1.90;;
74042;SDS011;62384;53.600;10.040;2023-04-27T02:31:12;5.30;;;2.03;;
74042;SDS011;62384;53.600;10.040;2023-04-27T02:37:00;3.95;;;1.70;;
74042;SDS011;62384;53.600;10.040;2023-04-27T02:39:25;6.25;;;1.88;;
74042;SDS011;62384;53.600;10.040;2023-04-27T02:41:51;6.65;;;1.88;;
74042;SDS011;62384;53.600;10.040;2023-04-27T02:44:16;5.47;;;2.55;;
74042;SDS011;62384;53.600;10.040;2023-04-27T02:46:41;5.82;;;1.73;;
74042;SDS011;62384;53.600;10.040;2023-04-27T02:49:06;3.70;;;1.58;;
74042;SDS011;62384;53.600;10.040;2023-04-27T02:51:32;10.00;;;2.83;;
74042;SDS011;62384;53.600;10.040;2023-04-27T02:53:57;7.70;;;2.63;;
74042;SDS011;62384;53.600;10.040;2023-04-27T02:56:22;6.70;;;2.22;;
74042;SDS011;62384;53.600;10.040;2023-04-27T02:58:49;6.07;;;2.28;;
74042;SDS011;62384;53.600;10.040;2023-04-27T03:01:15;5.85;;;1.80;;
74042;SDS011;62384;53.600;10.040;2023-04-27T03:03:46;5.35;;;2.10;;
74042;SDS011;62384;53.600;10.040;2023-04-27T03:06:12;4.85;;;1.70;;
74042;SDS011;62384;53.600;10.040;2023-04-27T03:08:37;11.48;;;2.42;;
74042;SDS011;62384;53.600;10.040;2023-04-27T03:11:02;4.55;;;1.73;;
74042;SDS011;62384;53.600;10.040;2023-04-27T03:13:27;6.53;;;1.75;;
74042;SDS011;62384;53.600;10.040;2023-04-27T03:15:53;5.72;;;1.83;;
74042;SDS011;62384;53.600;10.040;2023-04-27T03:18:18;5.30;;;2.05;;
74042;SDS011;62384;53.600;10.040;2023-04-27T03:20:44;4.93;;;2.00;;
74042;SDS011;62384;53.600;10.040;2023-04-27T03:23:09;5.53;;;1.65;;
74042;SDS011;62384;53.600;10.040;2023-04-27T03:25:34;4.80;;;1.65;;
74042;SDS011;62384;53.600;10.040;2023-04-27T03:28:00;9.27;;;1.83;;
74042;SDS011;62384;53.600;10.040;2023-04-27T03:30:26;4.25;;;1.90;;
74042;SDS011;62384;53.600;10.040;2023-04-27T03:32:52;4.40;;;2.03;;
74042;SDS011;62384;53.600;10.040;2023-04-27T03:35:17;6.13;;;1.80;;
74042;SDS011;62384;53.600;10.040;2023-04-27T03:37:42;5.45;;;1.65;;
74042;SDS011;62384;53.600;10.040;2023-04-27T03:40:10;3.55;;;1.63;;
74042;SDS011;62384;53.600;10.040;2023-04-27T03:42:36;4.90;;;1.48;;
74042;SDS011;62384;53.600;10.040;2023-04-27T03:45:01;4.13;;;1.63;;
74042;SDS011;62384;53.600;10.040;2023-04-27T03:47:27;3.25;;;1.80;;
74042;SDS011;62384;53.600;10.040;2023-04-27T03:49:52;7.00;;;1.40;;
74042;SDS011;62384;53.600;10.040;2023-04-27T03:52:17;3.08;;;1.75;;
74042;SDS011;62384;53.600;10.040;2023-04-27T03:54:42;4.97;;;1.60;;
74042;SDS011;62384;53.600;10.040;2023-04-27T03:57:08;4.18;;;1.75;;
74042;SDS011;62384;53.600;10.040;2023-04-27T03:59:33;4.88;;;2.33;;
74042;SDS011;62384;53.600;10.040;2023-04-27T04:01:58;3.53;;;1.83;;
74042;SDS011;62384;53.600;10.040;2023-04-27T04:04:23;2.30;;;1.67;;
74042;SDS011;62384;53.600;10.040;2023-04-27T04:06:56;7.38;;;2.30;;
74042;SDS011;62384;53.600;10.040;2023-04-27T04:09:21;9.40;;;2.17;;
74042;SDS011;62384;53.600;10.040;2023-04-27T04:11:46;7.22;;;2.15;;
74042;SDS011;62384;53.600;10.040;2023-04-27T04:14:11;6.95;;;2.45;;
74042;SDS011;62384;53.600;10.040;2023-04-27T04:16:37;6.28;;;2.42;;
74042;SDS011;62384;53.600;10.040;2023-04-27T04:19:02;8.07;;;2.25;;
74042;SDS011;62384;53.600;10.040;2023-04-27T04:21:27;7.75;;;2.35;;
74042;SDS011;62384;53.600;10.040;2023-04-27T04:23:53;6.32;;;2.28;;
74042;SDS011;62384;53.600;10.040;2023-04-27T04:26:20;8.35;;;2.30;;
74042;SDS011;62384;53.600;10.040;2023-04-27T04:28:47;10.90;;;2.63;;
74042;SDS011;62384;53.600;10.040;2023-04-27T04:31:12;4.38;;;1.90;;
74042;SDS011;62384;53.600;10.040;2023-04-27T04:33:40;11.18;;;2.80;;
74042;SDS011;62384;53.600;10.040;2023-04-27T04:36:06;5.80;;;2.35;;
74042;SDS011;62384;53.600;10.040;2023-04-27T04:38:31;9.45;;;2.35;;
74042;SDS011;62384;53.600;10.040;2023-04-27T04:40:57;6.30;;;2.45;;
74042;SDS011;62384;53.600;10.040;2023-04-27T04:43:23;4.13;;;2.30;;
74042;SDS011;62384;53.600;10.040;2023-04-27T04:45:48;5.88;;;2.65;;
74042;SDS011;62384;53.600;10.040;2023-04-27T04:48:14;7.93;;;2.20;;
74042;SDS011;62384;53.600;10.040;2023-04-27T04:50:40;9.95;;;2.97;;
74042;SDS011;62384;53.600;10.040;2023-04-27T04:53:06;8.50;;;2.75;;
74042;SDS011;62384;53.600;10.040;2023-04-27T04:55:31;4.55;;;1.95;;
74042;SDS011;62384;53.600;10.040;2023-04-27T04:57:56;6.43;;;2.30;;
74042;SDS011;62384;53.600;10.040;2023-04-27T05:00:21;6.60;;;2.72;;
74042;SDS011;62384;53.600;10.040;2023-04-27T05:02:47;8.20;;;2.47;;
74042;SDS011;62384;53.600;10.040;2023-04-27T05:05:12;5.45;;;2.05;;
74042;SDS011;62384;53.600;10.040;2023-04-27T05:07:37;7.07;;;2.45;;
74042;SDS011;62384;53.600;10.040;2023-04-27T05:10:03;6.05;;;2.38;;
74042;SDS011;62384;53.600;10.040;2023-04-27T05:12:28;6.43;;;2.40;;
74042;SDS011;62384;53.600;10.040;2023-04-27T05:14:54;4.97;;;2.70;;
74042;SDS011;62384;53.600;10.040;2023-04-27T05:17:19;6.03;;;2.33;;
74042;SDS011;62384;53.600;10.040;2023-04-27T05:19:44;8.18;;;2.75;;
74042;SDS011;62384;53.600;10.040;2023-04-27T05:22:09;5.45;;;2.70;;
74042;SDS011;62384;53.600;10.040;2023-04-27T05:24:35;10.65;;;3.20;;
74042;SDS011;62384;53.600;10.040;2023-04-27T05:27:00;9.35;;;2.83;;
74042;SDS011;62384;53.600;10.040;2023-04-27T05:29:26;9.95;;;2.83;;
74042;SDS011;62384;53.600;10.040;2023-04-27T05:31:51;10.05;;;3.20;;
74042;SDS011;62384;53.600;10.040;2023-04-27T05:34:17;10.50;;;3.58;;
74042;SDS011;62384;53.600;10.040;2023-04-27T05:36:43;9.77;;;3.28;;
74042;SDS011;62384;53.600;10.040;2023-04-27T05:39:08;10.25;;;3.30;;
74042;SDS011;62384;53.600;10.040;2023-04-27T05:41:33;10.05;;;3.10;;
74042;SDS011;62384;53.600;10.040;2023-04-27T05:43:59;14.10;;;3.70;;
74042;SDS011;62384;53.600;10.040;2023-04-27T05:46:24;4.80;;;2.65;;
74042;SDS011;62384;53.600;10.040;2023-04-27T05:48:49;11.60;;;3.03;;
74042;SDS011;62384;53.600;10.040;2023-04-27T05:51:15;12.48;;;3.10;;
74042;SDS011;62384;53.600;10.040;2023-04-27T05:53:40;7.07;;;2.42;;
74042;SDS011;62384;53.600;10.040;2023-04-27T05:56:06;8.23;;;2.58;;
74042;SDS011;62384;53.600;10.040;2023-04-27T05:58:32;9.15;;;2.50;;
74042;SDS011;62384;53.600;10.040;2023-04-27T06:00:58;3.85;;;2.15;;
74042;SDS011;62384;53.600;10.040;2023-04-27T06:03:30;6.40;;;2.78;;
74042;SDS011;62384;53.600;10.040;2023-04-27T06:05:57;7.22;;;3.13;;
74042;SDS011;62384;53.600;10.040;2023-04-27T06:08:23;8.60;;;2.65;;
74042;SDS011;62384;53.600;10.040;2023-04-27T06:10:49;7.82;;;3.17;;
74042;SDS011;62384;53.600;10.040;2023-04-27T06:13:15;9.00;;;2.63;;
74042;SDS011;62384;53.600;10.040;2023-04-27T06:15:41;9.02;;;3.17;;
74042;SDS011;62384;53.600;10.040;2023-04-27T06:18:06;7.40;;;2.65;;
74042;SDS011;62384;53.600;10.040;2023-04-27T06:20:31;7.40;;;2.45;;
74042;SDS011;62384;53.600;10.040;2023-04-27T06:22:57;6.22;;;2.50;;
74042;SDS011;62384;53.600;10.040;2023-04-27T06:25:24;6.07;;;2.40;;
74042;SDS011;62384;53.600;10.040;2023-04-27T06:27:51;8.02;;;2.55;;
74042;SDS011;62384;53.600;10.040;2023-04-27T06:30:16;7.53;;;2.70;;
74042;SDS011;62384;53.600;10.040;2023-04-27T06:32:42;9.52;;;2.80;;
74042;SDS011;62384;53.600;10.040;2023-04-27T06:35:07;7.88;;;2.72;;
74042;SDS011;62384;53.600;10.040;2023-04-27T06:37:33;4.72;;;2.70;;
74042;SDS011;62384;53.600;10.040;2023-04-27T06:39:58;8.57;;;2.30;;
74042;SDS011;62384;53.600;10.040;2023-04-27T06:42:23;13.55;;;2.70;;
74042;SDS011;62384;53.600;10.040;2023-04-27T06:44:51;4.78;;;2.25;;
74042;SDS011;62384;53.600;10.040;2023-04-27T06:47:18;4.55;;;2.15;;
74042;SDS011;62384;53.600;10.040;2023-04-27T06:49:43;8.00;;;2.00;;
74042;SDS011;62384;53.600;10.040;2023-04-27T06:55:30;5.45;;;2.38;;
74042;SDS011;62384;53.600;10.040;2023-04-27T06:57:55;6.20;;;2.00;;
74042;SDS011;62384;53.600;10.040;2023-04-27T07:00:20;6.55;;;2.38;;
74042;SDS011;62384;53.600;10.040;2023-04-27T07:02:46;6.43;;;2.88;;
74042;SDS011;62384;53.600;10.040;2023-04-27T07:05:11;7.50;;;2.00;;
74042;SDS011;62384;53.600;10.040;2023-04-27T07:07:37;6.72;;;2.03;;
74042;SDS011;62384;53.600;10.040;2023-04-27T07:10:02;5.95;;;2.08;;
74042;SDS011;62384;53.600;10.040;2023-04-27T07:12:38;4.95;;;2.08;;
74042;SDS011;62384;53.600;10.040;2023-04-27T07:15:04;7.00;;;2.42;;
74042;SDS011;62384;53.600;10.040;2023-04-27T07:17:30;5.43;;;1.75;;
74042;SDS011;62384;53.600;10.040;2023-04-27T07:19:56;5.80;;;1.70;;
74042;SDS011;62384;53.600;10.040;2023-04-27T07:22:22;5.38;;;2.20;;
74042;SDS011;62384;53.600;10.040;2023-04-27T07:24:48;4.18;;;1.60;;
74042;SDS011;62384;53.600;10.040;2023-04-27T07:27:13;7.45;;;1.80;;
74042;SDS011;62384;53.600;10.040;2023-04-27T07:29:40;6.10;;;1.30;;
74042;SDS011;62384;53.600;10.040;2023-04-27T07:32:06;3.88;;;1.73;;
74042;SDS011;62384;53.600;10.040;2023-04-27T07:34:32;2.72;;;1.27;;
74042;SDS011;62384;53.600;10.040;2023-04-27T07:36:58;3.92;;;1.48;;
74042;SDS011;62384;53.600;10.040;2023-04-27T07:39:23;2.38;;;1.20;;
74042;SDS011;62384;53.600;10.040;2023-04-27T07:41:49;4.53;;;1.30;;
74042;SDS011;62384;53.600;10.040;2023-04-27T07:44:14;3.60;;;1.40;;
74042;SDS011;62384;53.600;10.040;2023-04-27T07:46:41;3.85;;;1.30;;
74042;SDS011;62384;53.600;10.040;2023-04-27T07:49:07;3.92;;;1.45;;
74042;SDS011;62384;53.600;10.040;2023-04-27T07:51:32;6.88;;;1.85;;
74042;SDS011;62384;53.600;10.040;2023-04-27T07:53:58;8.07;;;1.60;;
74042;SDS011;62384;53.600;10.040;2023-04-27T07:56:24;8.15;;;1.23;;
74042;SDS011;62384;53.600;10.040;2023-04-27T07:58:49;5.35;;;1.88;;
74042;SDS011;62384;53.600;10.040;2023-04-27T08:01:16;4.32;;;1.30;;
74042;SDS011;62384;53.600;10.040;2023-04-27T08:03:41;2.67;;;1.38;;
74042;SDS011;62384;53.600;10.040;2023-04-27T08:06:07;3.38;;;1.33;;
74042;SDS011;62384;53.600;10.040;2023-04-27T08:08:34;4.20;;;1.63;;
74042;SDS011;62384;53.600;10.040;2023-04-27T08:10:59;5.45;;;1.73;;
74042;SDS011;62384;53.600;10.040;2023-04-27T08:13:25;4.15;;;1.58;;
74042;SDS011;62384;53.600;10.040;2023-04-27T08:15:51;2.38;;;1.40;;
74042;SDS011;62384;53.600;10.040;2023-04-27T08:18:22;5.25;;;2.15;;
74042;SDS011;62384;53.600;10.040;2023-04-27T08:20:47;4.07;;;1.50;;
74042;SDS011;62384;53.600;10.040;2023-04-27T08:23:13;5.20;;;1.45;;
74042;SDS011;62384;53.600;10.040;2023-04-27T08:25:38;7.55;;;1.30;;
74042;SDS011;62384;53.600;10.040;2023-04-27T08:28:03;2.15;;;1.30;;
74042;SDS011;62384;53.600;10.040;2023-04-27T08:30:28;3.33;;;1.25;;
74042;SDS011;62384;53.600;10.040;2023-04-27T08:32:54;3.13;;;1.77;;
74042;SDS011;62384;53.600;10.040;2023-04-27T08:35:19;2.13;;;1.30;;
74042;SDS011;62384;53.600;10.040;2023-04-27T08:37:44;3.22;;;1.58;;
74042;SDS011;62384;53.600;10.040;2023-04-27T08:40:10;2.50;;;1.30;;
74042;SDS011;62384;53.600;10.040;2023-04-27T08:42:36;2.58;;;1.40;;
74042;SDS011;62384;53.600;10.040;2023-04-27T08:45:05;7.80;;;1.98;;
74042;SDS011;62384;53.600;10.040;2023-04-27T08:47:32;5.57;;;1.52;;
74042;SDS011;62384;53.600;10.040;2023-04-27T08:49:57;2.92;;;1.42;;
74042;SDS011;62384;53.600;10.040;2023-04-27T08:52:23;5.38;;;1.55;;
74042;SDS011;62384;53.600;10.040;2023-04-27T08:54:48;3.35;;;1.27;;
74042;SDS011;62384;53.600;10.040;2023-04-27T08:57:14;5.30;;;1.50;;
74042;SDS011;62384;53.600;10.040;2023-04-27T08:59:40;3.72;;;1.50;;
74042;SDS011;62384;53.600;10.040;2023-04-27T09:02:06;2.20;;;1.25;;
74042;SDS011;62384;53.600;10.040;2023-04-27T09:04:43;3.28;;;1.13;;
74042;SDS011;62384;53.600;10.040;2023-04-27T09:07:08;6.10;;;1.38;;
74042;SDS011;62384;53.600;10.040;2023-04-27T09:09:36;3.05;;;1.33;;
74042;SDS011;62384;53.600;10.040;2023-04-27T09:12:12;6.47;;;1.60;;
74042;SDS011;62384;53.600;10.040;2023-04-27T09:14:54;2.40;;;1.50;;
74042;SDS011;62384;53.600;10.040;2023-04-27T09:17:23;2.00;;;1.20;;
74042;SDS011;62384;53.600;10.040;2023-04-27T09:20:02;3.70;;;1.10;;
74042;SDS011;62384;53.600;10.040;2023-04-27T09:22:43;3.22;;;1.15;;
74042;SDS011;62384;53.600;10.040;2023-04-27T09:25:08;7.68;;;1.90;;
74042;SDS011;62384;53.600;10.040;2023-04-27T09:27:33;3.15;;;1.15;;
74042;SDS011;62384;53.600;10.040;2023-04-27T09:30:10;5.15;;;1.38;;
74042;SDS011;62384;53.600;10.040;2023-04-27T09:32:37;3.22;;;1.20;;
74042;SDS011;62384;53.600;10.040;2023-04-27T09:35:02;6.65;;;1.35;;
74042;SDS011;62384;53.600;10.040;2023-04-27T09:37:37;2.25;;;1.67;;
74042;SDS011;62384;53.600;10.040;2023-04-27T09:40:03;3.53;;;1.48;;
74042;SDS011;62384;53.600;10.040;2023-04-27T09:42:29;2.05;;;1.63;;
74042;SDS011;62384;53.600;10.040;2023-04-27T09:44:55;3.95;;;1.20;;
74042;SDS011;62384;53.600;10.040;2023-04-27T09:47:22;4.70;;;1.70;;
74042;SDS011;62384;53.600;10.040;2023-04-27T09:49:48;3.15;;;1.60;;
74042;SDS011;62384;53.600;10.040;2023-04-27T09:52:15;2.60;;;1.40;;
74042;SDS011;62384;53.600;10.040;2023-04-27T09:54:40;2.55;;;1.60;;
74042;SDS011;62384;53.600;10.040;2023-04-27T09:57:22;3.13;;;1.55;;
74042;SDS011;62384;53.600;10.040;2023-04-27T10:05:41;2.65;;;1.50;;
74042;SDS011;62384;53.600;10.040;2023-04-27T10:08:13;2.17;;;1.10;;
74042;SDS011;62384;53.600;10.040;2023-04-27T10:10:45;4.05;;;1.33;;
74042;SDS011;62384;53.600;10.040;2023-04-27T10:13:24;2.00;;;0.70;;
74042;SDS011;62384;53.600;10.040;2023-04-27T10:15:51;2.28;;;1.13;;
74042;SDS011;62384;53.600;10.040;2023-04-27T10:18:27;3.85;;;1.27;;
74042;SDS011;62384;53.600;10.040;2023-04-27T10:20:54;5.28;;;1.08;;
74042;SDS011;62384;53.600;10.040;2023-04-27T10:23:25;2.67;;;1.10;;
74042;SDS011;62384;53.600;10.040;2023-04-27T10:25:52;2.97;;;1.48;;
74042;SDS011;62384;53.600;10.040;2023-04-27T10:28:20;2.30;;;1.20;;
74042;SDS011;62384;53.600;10.040;2023-04-27T10:30:46;1.08;;;0.63;;
74042;SDS011;62384;53.600;10.040;2023-04-27T10:33:16;1.85;;;0.90;;
74042;SDS011;62384;53.600;10.040;2023-04-27T10:35:43;2.85;;;1.00;;
74042;SDS011;62384;53.600;10.040;2023-04-27T10:38:20;1.27;;;0.95;;
74042;SDS011;62384;53.600;10.040;2023-04-27T10:41:00;1.40;;;1.20;;
74042;SDS011;62384;53.600;10.040;2023-04-27T10:43:29;3.63;;;1.25;;
74042;SDS011;62384;53.600;10.040;2023-04-27T10:46:11;2.75;;;1.42;;
74042;SDS011;62384;53.600;10.040;2023-04-27T10:48:39;3.75;;;1.88;;
74042;SDS011;62384;53.600;10.040;2023-04-27T10:51:06;2.60;;;1.40;;
74042;SDS011;62384;53.600;10.040;2023-04-27T10:53:34;4.55;;;1.65;;
74042;SDS011;62384;53.600;10.040;2023-04-27T10:56:00;3.10;;;1.73;;
74042;SDS011;62384;53.600;10.040;2023-04-27T10:58:26;2.42;;;1.35;;
74042;SDS011;62384;53.600;10.040;2023-04-27T11:00:51;3.40;;;1.80;;
74042;SDS011;62384;53.600;10.040;2023-04-27T11:03:18;4.10;;;1.70;;
74042;SDS011;62384;53.600;10.040;2023-04-27T11:05:46;5.95;;;1.75;;
74042;SDS011;62384;53.600;10.040;2023-04-27T11:08:14;3.70;;;1.85;;
74042;SDS011;62384;53.600;10.040;2023-04-27T11:10:49;5.57;;;1.80;;
74042;SDS011;62384;53.600;10.040;2023-04-27T11:13:18;2.60;;;1.35;;
74042;SDS011;62384;53.600;10.040;2023-04-27T11:15:54;4.82;;;1.60;;
74042;SDS011;62384;53.600;10.040;2023-04-27T11:18:29;3.05;;;1.48;;
74042;SDS011;62384;53.600;10.040;2023-04-27T11:21:05;3.45;;;1.60;;
74042;SDS011;62384;53.600;10.040;2023-04-27T11:23:33;3.60;;;1.85;;
74042;SDS011;62384;53.600;10.040;2023-04-27T11:26:14;6.22;;;2.15;;
74042;SDS011;62384;53.600;10.040;2023-04-27T11:28:55;4.13;;;2.55;;
74042;SDS011;62384;53.600;10.040;2023-04-27T11:31:25;5.65;;;1.90;;
74042;SDS011;62384;53.600;10.040;2023-04-27T11:34:02;6.80;;;1.95;;
74042;SDS011;62384;53.600;10.040;2023-04-27T11:36:27;4.80;;;1.92;;
74042;SDS011;62384;53.600;10.040;2023-04-27T11:38:56;7.38;;;2.13;;
74042;SDS011;62384;53.600;10.040;2023-04-27T11:41:31;4.45;;;1.75;;
74042;SDS011;62384;53.600;10.040;2023-04-27T11:44:02;3.15;;;1.55;;
74042;SDS011;62384;53.600;10.040;2023-04-27T11:46:29;4.40;;;1.70;;
74042;SDS011;62384;53.600;10.040;2023-04-27T11:48:59;3.17;;;1.80;;
74042;SDS011;62384;53.600;10.040;2023-04-27T11:51:25;4.68;;;1.92;;
74042;SDS011;62384;53.600;10.040;2023-04-27T11:53:54;3.20;;;2.45;;
74042;SDS011;62384;53.600;10.040;2023-04-27T11:56:20;4.50;;;1.77;;
74042;SDS011;62384;53.600;10.040;2023-04-27T11:58:45;3.47;;;1.90;;
74042;SDS011;62384;53.600;10.040;2023-04-27T12:01:11;4.25;;;1.65;;
74042;SDS011;62384;53.600;10.040;2023-04-27T12:03:36;3.88;;;1.73;;
74042;SDS011;62384;53.600;10.040;2023-04-27T12:06:02;1.73;;;1.58;;
74042;SDS011;62384;53.600;10.040;2023-04-27T12:08:28;3.83;;;1.80;;
74042;SDS011;62384;53.600;10.040;2023-04-27T12:10:53;3.85;;;1.70;;
74042;SDS011;62384;53.600;10.040;2023-04-27T12:13:19;2.80;;;1.58;;
74042;SDS011;62384;53.600;10.040;2023-04-27T12:15:46;4.80;;;1.85;;
74042;SDS011;62384;53.600;10.040;2023-04-27T12:18:11;2.60;;;1.45;;
74042;SDS011;62384;53.600;10.040;2023-04-27T12:20:37;6.72;;;2.10;;
74042;SDS011;62384;53.600;10.040;2023-04-27T12:23:04;5.30;;;1.63;;
74042;SDS011;62384;53.600;10.040;2023-04-27T12:25:29;3.60;;;1.75;;
74042;SDS011;62384;53.600;10.040;2023-04-27T12:27:54;4.95;;;1.65;;
74042;SDS011;62384;53.600;10.040;2023-04-27T12:30:21;3.13;;;1.83;;
74042;SDS011;62384;53.600;10.040;2023-04-27T12:32:47;6.00;;;1.65;;
74042;SDS011;62384;53.600;10.040;2023-04-27T12:35:13;5.38;;;2.03;;
74042;SDS011;62384;53.600;10.040;2023-04-27T12:37:38;3.47;;;1.50;;
74042;SDS011;62384;53.600;10.040;2023-04-27T12:40:04;4.22;;;1.55;;
74042;SDS011;62384;53.600;10.040;2023-04-27T12:42:33;3.70;;;1.63;;
74042;SDS011;62384;53.600;10.040;2023-04-27T12:44:58;5.22;;;2.10;;
74042;SDS011;62384;53.600;10.040;2023-04-27T12:47:23;3.78;;;1.90;;
74042;SDS011;62384;53.600;10.040;2023-04-27T12:49:50;4.25;;;1.42;;
74042;SDS011;62384;53.600;10.040;2023-04-27T12:52:15;3.42;;;1.98;;
74042;SDS011;62384;53.600;10.040;2023-04-27T12:54:41;4.25;;;1.80;;
74042;SDS011;62384;53.600;10.040;2023-04-27T12:57:06;3.83;;;1.90;;
74042;SDS011;62384;53.600;10.040;2023-04-27T12:59:32;5.20;;;2.13;;
74042;SDS011;62384;53.600;10.040;2023-04-27T13:01:59;3.50;;;2.15;;
74042;SDS011;62384;53.600;10.040;2023-04-27T13:04:29;6.05;;;1.70;;
74042;SDS011;62384;53.600;10.040;2023-04-27T13:06:55;3.60;;;1.80;;
74042;SDS011;62384;53.600;10.040;2023-04-27T13:09:24;3.72;;;2.10;;
74042;SDS011;62384;53.600;10.040;2023-04-27T13:11:50;3.75;;;2.30;;
74042;SDS011;62384;53.600;10.040;2023-04-27T13:14:17;5.43;;;2.10;;
74042;SDS011;62384;53.600;10.040;2023-04-27T13:16:44;4.50;;;2.08;;
74042;SDS011;62384;53.600;10.040;2023-04-27T13:19:13;4.63;;;1.77;;
74042;SDS011;62384;53.600;10.040;2023-04-27T13:21:38;3.75;;;2.28;;
74042;SDS011;62384;53.600;10.040;2023-04-27T13:24:03;7.30;;;2.40;;
74042;SDS011;62384;53.600;10.040;2023-04-27T13:26:29;6.03;;;2.80;;
74042;SDS011;62384;53.600;10.040;2023-04-27T13:28:55;5.05;;;2.58;;
74042;SDS011;62384;53.600;10.040;2023-04-27T13:31:22;6.72;;;2.90;;
74042;SDS011;62384;53.600;10.040;2023-04-27T13:33:47;7.13;;;2.80;;
74042;SDS011;62384;53.600;10.040;2023-04-27T13:36:13;6.68;;;2.80;;
74042;SDS011;62384;53.600;10.040;2023-04-27T13:38:38;6.43;;;3.30;;
74042;SDS011;62384;53.600;10.040;2023-04-27T13:41:04;6.60;;;3.00;;
74042;SDS011;62384;53.600;10.040;2023-04-27T13:43:30;7.40;;;2.47;;
74042;SDS011;62384;53.600;10.040;2023-04-27T13:45:59;10.25;;;3.63;;
74042;SDS011;62384;53.600;10.040;2023-04-27T13:48:25;4.93;;;3.05;;
74042;SDS011;62384;53.600;10.040;2023-04-27T13:50:52;4.38;;;2.70;;
74042;SDS011;62384;53.600;10.040;2023-04-27T13:53:24;5.40;;;2.60;;
74042;SDS011;62384;53.600;10.040;2023-04-27T13:55:51;5.95;;;2.83;;
74042;SDS011;62384;53.600;10.040;2023-04-27T13:58:18;8.68;;;3.03;;
74042;SDS011;62384;53.600;10.040;2023-04-27T14:00:43;7.25;;;3.28;;
74042;SDS011;62384;53.600;10.040;2023-04-27T14:03:08;7.07;;;3.10;;
74042;SDS011;62384;53.600;10.040;2023-04-27T14:05:34;6.75;;;2.88;;
74042;SDS011;62384;53.600;10.040;2023-04-27T14:07:59;3.70;;;2.22;;
74042;SDS011;62384;53.600;10.040;2023-04-27T14:10:25;4.65;;;2.67;;
74042;SDS011;62384;53.600;10.040;2023-04-27T14:12:50;4.40;;;2.17;;
74042;SDS011;62384;53.600;10.040;2023-04-27T14:15:15;6.30;;;2.67;;
74042;SDS011;62384;53.600;10.040;2023-04-27T14:17:41;6.65;;;2.35;;
74042;SDS011;62384;53.600;10.040;2023-04-27T14:20:09;6.03;;;2.30;;
74042;SDS011;62384;53.600;10.040;2023-04-27T14:22:34;3.67;;;2.05;;
74042;SDS011;62384;53.600;10.040;2023-04-27T14:25:01;3.42;;;2.05;;
74042;SDS011;62384;53.600;10.040;2023-04-27T14:27:26;4.68;;;2.10;;
74042;SDS011;62384;53.600;10.040;2023-04-27T14:29:52;3.45;;;1.88;;
74042;SDS011;62384;53.600;10.040;2023-04-27T14:32:18;4.15;;;2.20;;
74042;SDS011;62384;53.600;10.040;2023-04-27T14:34:43;4.75;;;2.13;;
74042;SDS011;62384;53.600;10.040;2023-04-27T14:37:10;5.57;;;2.30;;
74042;SDS011;62384;53.600;10.040;2023-04-27T14:39:35;2.90;;;2.10;;
74042;SDS011;62384;53.600;10.040;2023-04-27T14:42:04;2.97;;;1.90;;